< < Back
Terminal Aerodrome Forecast


Current Version              Previous Versions:   1  2  3  4  5  6  7  8  9  

Terminal Aerodrome Forecast

091
FTUS42 KFFC 282152 AAA
TAFMCN
TAF AMD
KMCN 282152Z 2822/2918 30010G18KT P6SM SKC
     FM290000 35007KT P6SM BKN120
     FM290600 VRB03KT P6SM SCT150
     FM291000 10005KT P6SM SCT250
     FM291600 12007KT P6SM SKC=

Latest METAR

615
SAUS80 KWBC 291200
MTRMCN
METAR KMCN 291153Z 00000KT 10SM CLR M02/M04 A3039 RMK AO2 SLP291
T10221039 10011 21028 52022


USA.gov is the U.S. government's official web portal to all federal, state and local government web resources and services.